createdAt,value
2022-08-05T00:02:57.237Z,47.96
2022-08-05T00:06:22.344Z,47.96
2022-08-05T00:09:44.124Z,48.05
2022-08-05T00:12:56.755Z,48.16
2022-08-05T00:16:36.226Z,48.63
2022-08-05T00:20:02.377Z,48.78
2022-08-05T00:23:44.718Z,48.91
2022-08-05T00:26:46.691Z,49.02
2022-08-05T00:29:57.128Z,49.36
2022-08-05T00:33:06.974Z,49.26
2022-08-05T00:37:12.484Z,49.73
2022-08-05T00:39:58.641Z,50.05
2022-08-05T00:43:07.566Z,50.43
2022-08-05T00:46:12.761Z,50.65
2022-08-05T00:49:20.137Z,50.48
2022-08-05T00:52:28.423Z,50.53
2022-08-05T00:55:42.413Z,50.75
2022-08-05T00:58:47.872Z,50.65
2022-08-05T01:01:51.179Z,50.77
2022-08-05T01:04:55.538Z,51.09
2022-08-05T01:08:40.112Z,51.29
2022-08-05T01:12:18.120Z,51.92
2022-08-05T01:15:57.146Z,52.13
2022-08-05T01:19:57.030Z,52.36
2022-08-05T01:23:34.969Z,52.36
2022-08-05T01:26:54.892Z,51.93
2022-08-05T01:30:03.835Z,51.97
2022-08-05T01:33:10.794Z,52.31
2022-08-05T01:36:21.196Z,52.54
2022-08-05T01:39:45.768Z,53.24
2022-08-05T01:42:52.789Z,53.29
2022-08-05T01:45:57.879Z,53.48
2022-08-05T01:49:24.974Z,53.71
2022-08-05T01:52:50.498Z,53.66
2022-08-05T01:55:59.675Z,53.96
2022-08-05T01:59:13.881Z,53.94
2022-08-05T02:02:46.466Z,54.28
2022-08-05T02:06:37.177Z,54.33
2022-08-05T02:09:51.532Z,54.17
2022-08-05T02:13:16.628Z,54.06
2022-08-05T02:16:28.187Z,54.41
2022-08-05T02:19:47.434Z,54.25
2022-08-05T02:22:58.698Z,54.16
2022-08-05T02:26:08.091Z,54.37
2022-08-05T02:29:21.572Z,54.54
2022-08-05T02:32:40.834Z,54.83
2022-08-05T02:36:15.534Z,54.96
2022-08-05T02:39:41.311Z,55.12
2022-08-05T02:42:52.660Z,55.64
2022-08-05T02:45:58.807Z,55.80
2022-08-05T02:49:06.103Z,55.99
2022-08-05T02:52:29.770Z,56.37
2022-08-05T02:56:01.854Z,56.79
2022-08-05T02:59:06.439Z,56.61
2022-08-05T03:02:15.097Z,56.26
2022-08-05T03:06:54.921Z,56.56
2022-08-05T03:09:04.772Z,56.77
2022-08-05T03:12:10.797Z,57.02
2022-08-05T03:15:15.402Z,56.83
2022-08-05T03:18:29.774Z,57.08
2022-08-05T03:41:38.601Z,57.44
2022-08-05T03:45:21.815Z,57.47
2022-08-05T03:48:45.420Z,57.77
2022-08-05T03:52:49.193Z,57.78
2022-08-05T03:56:36.786Z,57.64
2022-08-05T03:59:54.719Z,58.08
2022-08-05T04:03:01.613Z,58.55
2022-08-05T04:06:26.121Z,58.45
2022-08-05T04:09:30.495Z,58.68
2022-08-05T04:13:00.222Z,59.27
2022-08-05T04:16:09.643Z,58.93
2022-08-05T04:19:20.836Z,58.69
2022-08-05T04:22:26.560Z,58.55
2022-08-05T04:25:57.425Z,58.98
2022-08-05T04:29:07.072Z,58.92
2022-08-05T04:32:11.354Z,58.74
2022-08-05T04:35:17.582Z,59.05
2022-08-05T04:38:43.854Z,58.93
2022-08-05T04:41:53.985Z,58.89
2022-08-05T04:44:59.848Z,59.22
2022-08-05T04:48:27.355Z,59.31
2022-08-05T04:51:51.306Z,58.90
2022-08-05T04:55:14.346Z,58.41
2022-08-05T04:58:21.632Z,58.19
2022-08-05T05:02:41.764Z,57.98
2022-08-05T06:44:30.527Z,37.97
2022-08-05T06:48:37.044Z,38.04
2022-08-05T06:51:33.032Z,37.60
2022-08-05T06:54:36.403Z,36.50
2022-08-05T06:57:57.166Z,36.54
2022-08-05T07:01:07.807Z,36.17
2022-08-05T07:04:13.958Z,35.97
2022-08-05T07:07:23.894Z,35.58
2022-08-05T07:10:52.271Z,34.99
2022-08-05T07:14:29.796Z,34.77
2022-08-05T07:18:00.303Z,33.79
2022-08-05T07:20:57.985Z,33.00
2022-08-05T07:28:17.115Z,32.88
2022-08-05T07:31:53.963Z,32.33
2022-08-05T07:43:20.328Z,31.22
2022-08-05T08:06:44.529Z,29.25
2022-08-05T08:10:20.813Z,28.70
2022-08-05T08:13:30.735Z,28.72
2022-08-05T08:16:51.175Z,28.93
2022-08-05T08:20:22.604Z,28.65
2022-08-05T08:24:01.457Z,28.29
2022-08-05T08:27:00.754Z,28.46
2022-08-05T08:30:27.631Z,28.08
2022-08-05T08:33:38.597Z,28.37
2022-08-05T08:36:48.834Z,28.03
2022-08-05T08:40:03.429Z,27.38
2022-08-05T08:45:16.101Z,26.86
2022-08-05T08:46:53.332Z,26.86
2022-08-05T08:50:22.347Z,26.70
2022-08-05T08:53:24.979Z,26.49
2022-08-05T08:56:33.482Z,26.40
2022-08-05T08:59:38.374Z,25.96
2022-08-05T09:02:48.281Z,26.04
2022-08-05T09:09:53.606Z,26.05
2022-08-05T09:13:04.971Z,25.51
2022-08-05T09:16:23.091Z,25.04
2022-08-05T09:19:36.418Z,24.53
2022-08-05T09:23:21.747Z,25.51
2022-08-05T09:26:26.634Z,24.33
2022-08-05T09:29:47.731Z,23.80
2022-08-05T09:32:52.999Z,23.81
2022-08-05T09:36:11.588Z,24.50
2022-08-05T09:39:22.242Z,24.04
2022-08-05T09:42:27.998Z,24.30
2022-08-05T09:46:07.801Z,22.89
2022-08-05T09:53:22.987Z,23.15
2022-08-05T09:56:52.636Z,23.49
2022-08-05T09:59:58.946Z,22.51
2022-08-05T10:03:15.338Z,22.78
2022-08-05T10:18:55.305Z,22.98
2022-08-05T10:22:30.370Z,22.14
2022-08-05T10:26:07.080Z,21.49
2022-08-05T10:29:10.702Z,21.52
2022-08-05T10:32:53.603Z,22.50
2022-08-05T10:35:40.391Z,22.44
2022-08-05T10:38:53.273Z,22.10
2022-08-05T10:42:11.324Z,21.32
2022-08-05T10:45:23.252Z,21.37
2022-08-05T10:49:16.558Z,21.74
2022-08-05T10:52:54.057Z,21.41
2022-08-05T10:56:25.313Z,21.32
2022-08-05T11:00:04.363Z,21.10
2022-08-05T11:03:25.082Z,20.55
2022-08-05T11:06:30.907Z,20.89
2022-08-05T11:09:46.198Z,20.92
2022-08-05T11:12:54.449Z,20.43
2022-08-05T11:16:22.447Z,20.42
2022-08-05T11:20:11.150Z,21.16
2022-08-05T11:23:33.600Z,21.11
2022-08-05T11:27:50.768Z,20.97
2022-08-05T11:30:58.868Z,21.10
2022-08-05T11:34:08.118Z,21.69
2022-08-05T11:38:29.936Z,20.78
2022-08-05T11:41:34.137Z,20.67
2022-08-05T11:44:53.103Z,20.31
2022-08-05T11:47:58.874Z,19.98
2022-08-05T11:51:02.721Z,20.31
2022-08-05T11:54:06.913Z,20.99
2022-08-05T11:57:24.359Z,20.50
2022-08-05T12:00:31.917Z,20.32
2022-08-05T12:03:56.014Z,20.43
2022-08-05T12:07:01.209Z,20.44
2022-08-05T12:10:19.342Z,20.24
2022-08-05T12:13:47.904Z,20.48
2022-08-05T12:16:49.705Z,20.04
2022-08-05T12:20:17.142Z,19.43
2022-08-05T12:23:24.976Z,19.85
2022-08-05T12:26:36.439Z,20.47
2022-08-05T12:29:39.842Z,19.72
2022-08-05T12:32:51.296Z,20.16
2022-08-05T12:35:57.717Z,20.15
2022-08-05T12:39:01.746Z,20.45
2022-08-05T12:42:16.609Z,20.71
2022-08-05T12:45:20.469Z,20.41
2022-08-05T12:48:32.527Z,19.57
2022-08-05T12:52:14.424Z,19.68
2022-08-05T12:55:25.463Z,19.33
2022-08-05T12:58:38.218Z,19.83
2022-08-05T13:02:12.116Z,19.66
2022-08-05T13:05:15.357Z,19.42
2022-08-05T13:08:18.974Z,19.34
2022-08-05T13:12:02.168Z,19.48
2022-08-05T13:15:06.677Z,19.71
2022-08-05T13:18:10.660Z,19.96
2022-08-05T13:21:14.408Z,20.05
2022-08-05T13:24:27.606Z,20.03
2022-08-05T13:27:44.015Z,20.15
2022-08-05T13:30:54.558Z,19.10
2022-08-05T13:34:21.465Z,19.04
2022-08-05T13:37:34.225Z,18.77
2022-08-05T13:41:02.927Z,19.28
2022-08-05T13:44:07.982Z,18.75
2022-08-05T13:47:35.143Z,18.96
2022-08-05T13:50:40.035Z,18.65
2022-08-05T13:53:47.756Z,18.50
2022-08-05T13:56:51.998Z,19.19
2022-08-05T13:59:57.177Z,18.44
2022-08-05T14:03:02.860Z,18.58
2022-08-05T14:06:25.913Z,18.67
2022-08-05T14:09:29.760Z,19.19
2022-08-05T14:12:33.279Z,19.09
2022-08-05T14:16:08.020Z,19.03
2022-08-05T14:19:04.525Z,19.21
2022-08-05T14:22:11.934Z,19.30
2022-08-05T14:25:21.475Z,19.38
2022-08-05T14:28:27.151Z,19.15
2022-08-05T14:31:54.314Z,19.43
2022-08-05T14:34:56.685Z,19.10
2022-08-05T14:38:01.075Z,19.17
2022-08-05T14:45:07.096Z,18.85
2022-08-05T14:48:32.474Z,19.14
2022-08-05T14:51:42.655Z,19.21
2022-08-05T14:54:53.030Z,19.39
2022-08-05T14:57:56.716Z,18.83
2022-08-05T15:01:00.559Z,18.91
2022-08-05T15:04:07.167Z,18.93
2022-08-05T15:07:11.106Z,18.96
2022-08-05T15:10:35.482Z,18.89
2022-08-05T15:13:45.849Z,18.90
2022-08-05T15:16:49.629Z,19.17
2022-08-05T15:19:55.135Z,18.94
2022-08-05T15:23:10.494Z,19.25
2022-08-05T15:26:13.772Z,19.04
2022-08-05T15:29:18.105Z,19.00
2022-08-05T15:32:22.121Z,18.95
2022-08-05T15:35:35.942Z,18.90
2022-08-05T15:38:40.910Z,19.23
2022-08-05T15:41:58.549Z,19.30
2022-08-05T15:45:02.968Z,19.15
2022-08-05T15:48:10.106Z,19.36
2022-08-05T15:51:22.611Z,19.21
2022-08-05T15:54:46.339Z,19.12
2022-08-05T15:57:56.006Z,18.87
2022-08-05T16:05:09.733Z,19.54
2022-08-05T16:12:17.430Z,19.93
2022-08-05T16:15:23.920Z,20.16
2022-08-05T16:18:28.016Z,19.80
2022-08-05T16:22:01.178Z,19.78
2022-08-05T16:24:56.861Z,20.15
2022-08-05T16:28:10.530Z,20.06
2022-08-05T16:35:15.994Z,20.39
2022-08-05T16:38:28.281Z,20.21
2022-08-05T16:42:13.615Z,20.99
2022-08-05T16:44:57.094Z,20.87
2022-08-05T16:48:04.316Z,20.77
2022-08-05T16:51:09.769Z,20.99
2022-08-05T16:54:22.509Z,20.70
2022-08-05T16:57:53.715Z,21.10
2022-08-05T17:00:53.915Z,21.71
2022-08-05T17:03:58.339Z,21.22
2022-08-05T17:07:11.216Z,21.43
2022-08-05T17:10:15.576Z,20.90
2022-08-05T17:13:21.268Z,21.61
2022-08-05T17:16:42.363Z,22.33
2022-08-05T17:19:47.363Z,22.71
2022-08-05T17:22:59.270Z,23.76
2022-08-05T17:30:19.278Z,25.02
2022-08-05T17:34:20.755Z,25.65
2022-08-05T17:38:30.936Z,25.34
2022-08-05T17:51:26.487Z,25.90
2022-08-05T18:11:09.668Z,26.30
2022-08-05T18:14:26.765Z,26.49
2022-08-05T18:18:01.211Z,26.66
2022-08-05T18:20:53.339Z,26.53
2022-08-05T18:24:16.496Z,27.12
2022-08-05T18:27:20.192Z,26.79
2022-08-05T18:30:23.899Z,26.89
2022-08-05T18:33:46.658Z,27.26
2022-08-05T18:36:50.344Z,27.24
2022-08-05T18:41:52.720Z,27.66
2022-08-05T18:43:42.964Z,27.80
2022-08-05T18:46:52.147Z,28.32
2022-08-05T18:50:15.669Z,28.29
2022-08-05T18:53:22.897Z,28.45
2022-08-05T18:56:28.558Z,28.37
2022-08-05T18:59:43.994Z,28.54
2022-08-05T19:03:15.919Z,28.89
2022-08-05T19:06:21.999Z,28.69
2022-08-05T19:09:28.444Z,28.68
2022-08-05T19:12:43.416Z,28.77
2022-08-05T19:15:59.761Z,28.64
2022-08-05T19:19:08.079Z,29.29
2022-08-05T19:22:33.380Z,29.46
2022-08-05T19:26:02.222Z,29.95
2022-08-05T19:29:07.037Z,30.24
2022-08-05T19:32:46.835Z,30.22
2022-08-05T19:36:21.912Z,30.31
2022-08-05T19:39:54.115Z,30.11
2022-08-05T19:43:05.319Z,31.11
2022-08-05T19:50:21.699Z,32.97
2022-08-05T19:54:04.023Z,33.20
2022-08-05T19:57:11.037Z,33.16
2022-08-05T20:00:40.012Z,33.06
2022-08-05T20:04:06.330Z,33.10
2022-08-05T20:07:47.862Z,32.88
2022-08-05T20:11:13.464Z,33.16
2022-08-05T20:14:40.940Z,33.37
2022-08-05T20:18:32.895Z,33.50
2022-08-05T20:21:33.775Z,33.77
2022-08-05T20:24:41.608Z,33.83
2022-08-05T20:27:47.151Z,33.86
2022-08-05T20:30:57.236Z,33.96
2022-08-05T20:34:00.165Z,34.04
2022-08-05T20:37:04.039Z,34.24
2022-08-05T20:40:12.908Z,34.33
2022-08-05T20:44:03.480Z,34.45
2022-08-05T20:47:19.094Z,34.55
2022-08-05T20:50:37.764Z,35.20
2022-08-05T20:53:57.006Z,36.19
2022-08-05T20:57:01.148Z,37.71
2022-08-05T21:00:21.038Z,38.21
2022-08-05T21:03:34.906Z,38.38
2022-08-05T21:06:45.676Z,38.08
2022-08-05T21:09:53.541Z,38.51
2022-08-05T21:13:48.055Z,38.85
2022-08-05T21:16:57.465Z,39.64
2022-08-05T21:20:09.911Z,38.91
2022-08-05T21:23:14.185Z,38.67
2022-08-05T21:26:17.250Z,38.23
2022-08-05T21:29:26.288Z,38.75
2022-08-05T21:32:33.683Z,39.02
2022-08-05T22:35:58.956Z,43.12
2022-08-05T22:39:22.971Z,43.00
2022-08-05T22:42:27.580Z,42.95
2022-08-05T22:45:32.889Z,43.25
2022-08-05T22:48:38.331Z,43.26
2022-08-05T22:52:04.843Z,43.84
2022-08-05T22:55:19.197Z,43.78
2022-08-05T22:58:28.353Z,44.74
2022-08-05T23:02:03.836Z,44.62
2022-08-05T23:05:02.059Z,45.16
2022-08-05T23:08:14.887Z,45.63
2022-08-05T23:11:19.114Z,45.97
2022-08-05T23:14:23.035Z,46.12
2022-08-05T23:17:37.460Z,46.75
2022-08-05T23:21:01.131Z,46.69
2022-08-05T23:24:11.455Z,46.78
2022-08-05T23:27:42.453Z,47.08
2022-08-05T23:31:17.030Z,47.31
2022-08-05T23:34:56.674Z,47.35
2022-08-05T23:38:01.618Z,47.49
2022-08-05T23:41:05.005Z,47.21
2022-08-05T23:44:45.471Z,47.66
2022-08-05T23:48:17.579Z,47.65
2022-08-05T23:52:18.987Z,47.50
2022-08-05T23:55:52.240Z,47.85
2022-08-05T23:59:19.525Z,47.77
